Chisholm-hibbing, MN

8:44 PM CDT on August 22, 2014 (GMT -0500)
Eveleth-Virginia Municipal | Change Station
CLOSE
Current Station
Airport
Location: Eveleth,
Elevation: 1378 ft
Nearby Weather Stations

Elev 1378 ft 47.43 °N, 92.50 °W | Updated 12 minutes ago

Overcast
Overcast
70 °F
Feels Like 70 °F
N
0
Wind Variable Wind from North

Today
High -- | Low -- °F
--% Chance of Precip.
Yesterday
High -- | Low -- °F
Precip. -- in
6:16 AM 8:10 PM
Waning Crescent, 6% visible
Pressure 30.05 in
Visibility 10.0 miles
Clouds Mostly Cloudy 900 ft
Overcast 2000 ft
Dew Point 68 °F
Humidity 94%
Rainfall 0.00 in
Snow Depth Not available.
UV 0 out of 12
Pollen 6.70 out of 12
Air Quality Not available.
Flu Activity Not available.
METAR KEVM 230132Z AUTO 00000KT 10SM BKN009 OVC020 21/20 A3005 RMK AO2

More Conditions Fewer Conditions

Pressure 30.05 in
Visibility 10.0 miles
Clouds Mostly Cloudy 900 ft
Overcast 2000 ft
Dew Point 68 °F
Humidity 94%
Rainfall 0.00 in
Snow Depth Not available.
UV 0 out of 12
Pollen 6.70 out of 12
Air Quality Not available.
Flu Activity Not available.
METAR KEVM 230132Z AUTO 00000KT 10SM BKN009 OVC020 21/20 A3005 RMK AO2

More Conditions Fewer Conditions

10-Day Weather Forecast

Almanac

Astronomy

Aug. 22, 2014 Rise Set
Actual Time 6:16 AM CDT 8:10 PM CDT
Civil Twilight 5:44 AM CDT 8:43 PM CDT
Nautical Twilight 5:03 AM CDT 9:23 PM CDT
Astronomical Twilight 4:19 AM CDT 10:07 PM CDT
Moon 3:34 AM CDT (8/22) 6:22 PM CDT (8/22)
Length of Visible Light 14h 59m
Length of Day
13h 53m
Tomorrow will be 3m 10s shorter.
Waning Crescent, 6% of the Moon is Illuminated
Today
Waning Crescent
Aug 25
New
Sep 2
First Quarter
Sep 8
Full
Sep 15
Last Quarter

Today's Extremes

State Highs State Lows

Community

WunderPhotos

Upload Photos

1,746,337 photos uploaded!

WunderBlogs® & News

Nearby

Snow Depth

Station Depth Elevation
No new snow has been reported.

Earthquake Activity

City Distance Mag. Time & Date
No recent earthquake activity has been reported nearby.
Minimum magnitude displayed is 2.5.

Coastal Water Temperatures

Place Temperature
No Stations Reporting

Nearby Weather Stations